createdAt,value
2022-08-14T00:01:54.734Z,5.10
2022-08-14T00:04:36.003Z,5.37
2022-08-14T00:07:10.672Z,5.70
2022-08-14T00:09:39.636Z,5.30
2022-08-14T00:12:33.042Z,5.47
2022-08-14T00:15:02.693Z,5.20
2022-08-14T00:17:38.124Z,4.73
2022-08-14T00:20:15.269Z,5.50
2022-08-14T00:22:57.860Z,5.33
2022-08-14T00:25:41.450Z,4.40
2022-08-14T00:28:10.836Z,5.23
2022-08-14T00:30:43.798Z,5.50
2022-08-14T00:33:15.142Z,5.20
2022-08-14T00:36:37.265Z,5.20
2022-08-14T00:38:34.871Z,5.10
2022-08-14T00:41:04.134Z,5.47
2022-08-14T00:43:32.741Z,5.80
2022-08-14T00:46:05.292Z,5.07
2022-08-14T00:48:38.344Z,5.40
2022-08-14T00:51:07.757Z,5.10
2022-08-14T00:53:36.179Z,5.30
2022-08-14T00:56:08.615Z,4.30
2022-08-14T00:58:45.100Z,5.23
2022-08-14T01:01:19.106Z,5.00
2022-08-14T01:03:52.647Z,5.30
2022-08-14T01:06:21.250Z,4.83
2022-08-14T01:08:52.169Z,5.13
2022-08-14T01:11:35.459Z,5.00
2022-08-14T01:14:25.950Z,5.00
2022-08-14T01:16:55.399Z,4.70
2022-08-14T01:19:53.791Z,5.03
2022-08-14T01:22:26.777Z,5.23
2022-08-14T01:24:57.919Z,5.07
2022-08-14T01:27:28.697Z,4.40
2022-08-14T01:30:04.086Z,4.93
2022-08-14T01:32:35.534Z,4.37
2022-08-14T01:35:20.918Z,5.20
2022-08-14T01:38:00.430Z,4.50
2022-08-14T01:40:36.224Z,5.03
2022-08-14T01:43:18.671Z,5.20
2022-08-14T01:46:05.965Z,4.80
2022-08-14T01:48:37.471Z,4.50
2022-08-14T01:51:19.311Z,4.50
2022-08-14T01:53:55.300Z,4.50
2022-08-14T01:56:36.898Z,4.73
2022-08-14T01:59:07.501Z,4.53
2022-08-14T02:01:41.732Z,4.90
2022-08-14T02:04:40.649Z,4.70
2022-08-14T02:06:58.448Z,5.13
2022-08-14T02:09:27.988Z,4.30
2022-08-14T02:12:00.061Z,4.50
2022-08-14T02:14:32.100Z,4.97
2022-08-14T02:17:00.451Z,4.57
2022-08-14T02:19:32.230Z,4.73
2022-08-14T02:22:03.358Z,5.40
2022-08-14T02:24:40.439Z,5.40
2022-08-14T02:28:22.590Z,5.10
2022-08-14T02:30:00.238Z,5.23
2022-08-14T02:32:30.271Z,4.70
2022-08-14T02:35:15.786Z,5.30
2022-08-14T02:37:47.256Z,4.80
2022-08-14T02:40:18.526Z,5.90
2022-08-14T02:42:54.794Z,5.20
2022-08-14T02:45:33.583Z,5.00
2022-08-14T02:48:10.503Z,4.80
2022-08-14T02:50:55.942Z,4.80
2022-08-14T02:53:24.027Z,4.43
2022-08-14T02:55:53.898Z,5.13
2022-08-14T02:58:30.280Z,4.23
2022-08-14T03:01:01.585Z,4.60
2022-08-14T03:03:31.899Z,5.17
2022-08-14T03:06:04.613Z,4.33
2022-08-14T03:08:33.650Z,4.50
2022-08-14T03:11:10.733Z,4.97
2022-08-14T03:13:41.623Z,4.50
2022-08-14T03:16:19.984Z,5.13
2022-08-14T03:18:59.749Z,5.23
2022-08-14T03:21:30.881Z,4.97
2022-08-14T03:24:21.717Z,4.40
2022-08-14T03:26:57.784Z,4.67
2022-08-14T03:29:29.509Z,5.23
2022-08-14T03:31:59.436Z,5.00
2022-08-14T03:34:45.677Z,4.87
2022-08-14T03:39:09.400Z,4.93
2022-08-14T03:40:05.179Z,4.80
2022-08-14T03:42:36.515Z,4.40
2022-08-14T03:45:26.067Z,8.07
2022-08-14T03:47:58.432Z,4.60
2022-08-14T03:50:30.731Z,4.80
2022-08-14T03:53:01.119Z,4.33
2022-08-14T03:55:30.459Z,4.50
2022-08-14T03:58:00.888Z,4.87
2022-08-14T04:00:43.844Z,5.30
2022-08-14T04:03:17.949Z,4.43
2022-08-14T04:05:48.842Z,4.80
2022-08-14T04:08:29.540Z,4.33
2022-08-14T04:11:01.211Z,4.60
2022-08-14T04:13:31.856Z,4.57
2022-08-14T04:16:04.857Z,4.33
2022-08-14T04:18:33.987Z,6.60
2022-08-14T04:21:02.500Z,4.63
2022-08-14T04:23:33.389Z,4.80
2022-08-14T04:26:02.770Z,4.40
2022-08-14T04:29:06.969Z,4.77
2022-08-14T04:31:34.618Z,4.03
2022-08-14T04:34:17.139Z,5.20
2022-08-14T04:37:07.492Z,5.13
2022-08-14T04:39:57.077Z,4.83
2022-08-14T04:42:47.477Z,4.73
2022-08-14T04:45:21.595Z,5.10
2022-08-14T04:48:10.123Z,4.63
2022-08-14T04:50:44.441Z,5.30
2022-08-14T04:53:17.258Z,6.70
2022-08-14T04:55:51.660Z,4.53
2022-08-14T04:58:21.800Z,5.27
2022-08-14T05:01:01.547Z,4.60
2022-08-14T05:03:31.481Z,4.10
2022-08-14T05:06:00.921Z,4.83
2022-08-14T05:08:32.123Z,4.47
2022-08-14T05:11:19.345Z,4.90
2022-08-14T05:16:39.062Z,4.70
2022-08-14T05:19:17.738Z,4.47
2022-08-14T05:22:01.190Z,5.53
2022-08-14T05:24:44.614Z,4.63
2022-08-14T05:27:12.607Z,4.30
2022-08-14T05:29:44.880Z,4.60
2022-08-14T05:32:15.879Z,4.43
2022-08-14T05:34:46.064Z,4.10
2022-08-14T05:37:15.245Z,4.60
2022-08-14T05:39:43.836Z,4.37
2022-08-14T05:42:22.056Z,6.17
2022-08-14T05:44:56.090Z,4.90
2022-08-14T05:47:29.095Z,4.90
2022-08-14T05:50:02.828Z,4.57
2022-08-14T05:52:38.351Z,4.70
2022-08-14T05:55:22.700Z,4.27
2022-08-14T05:57:52.366Z,4.67
2022-08-14T06:00:24.759Z,4.40
2022-08-14T06:03:00.029Z,4.47
2022-08-14T06:05:28.789Z,4.27
2022-08-14T06:07:57.762Z,4.30
2022-08-14T06:10:25.901Z,3.60
2022-08-14T06:12:57.953Z,4.20
2022-08-14T06:15:30.578Z,4.30
2022-08-14T06:18:05.290Z,4.50
2022-08-14T06:20:35.706Z,4.10
2022-08-14T06:23:03.927Z,4.40
2022-08-14T06:25:32.839Z,3.97
2022-08-14T06:28:03.887Z,4.67
2022-08-14T06:30:45.613Z,4.33
2022-08-14T06:33:22.403Z,4.50
2022-08-14T06:35:54.757Z,4.53
2022-08-14T06:38:24.017Z,4.47
2022-08-14T06:40:53.311Z,4.23
2022-08-14T06:43:28.355Z,4.60
2022-08-14T06:46:17.469Z,4.17
2022-08-14T06:49:10.885Z,4.30
2022-08-14T06:51:49.997Z,4.23
2022-08-14T06:54:22.255Z,4.50
2022-08-14T06:57:00.032Z,4.67
2022-08-14T06:59:30.517Z,4.03
2022-08-14T07:02:19.238Z,4.20
2022-08-14T07:05:06.430Z,3.97
2022-08-14T07:07:39.315Z,4.40
2022-08-14T07:10:07.990Z,4.33
2022-08-14T07:13:01.158Z,3.97
2022-08-14T07:15:34.368Z,4.10
2022-08-14T07:18:08.818Z,4.30
2022-08-14T07:20:41.043Z,3.87
2022-08-14T07:23:20.497Z,4.37
2022-08-14T07:25:51.412Z,3.77
2022-08-14T07:28:23.902Z,4.00
2022-08-14T07:31:04.655Z,5.30
2022-08-14T07:33:37.809Z,4.10
2022-08-14T07:36:26.377Z,4.60
2022-08-14T07:39:12.046Z,3.83
2022-08-14T07:41:44.456Z,3.80
2022-08-14T07:44:28.789Z,4.17
2022-08-14T07:47:01.955Z,4.83
2022-08-14T07:49:41.174Z,4.00
2022-08-14T07:52:22.151Z,4.10
2022-08-14T07:55:07.638Z,4.30
2022-08-14T07:57:41.618Z,4.73
2022-08-14T08:00:31.136Z,4.40
2022-08-14T08:03:12.536Z,3.87
2022-08-14T08:05:46.406Z,3.80
2022-08-14T08:08:27.013Z,4.23
2022-08-14T08:11:02.345Z,3.90
2022-08-14T08:13:31.725Z,4.73
2022-08-14T08:16:03.270Z,4.53
2022-08-14T08:18:31.736Z,4.20
2022-08-14T08:21:04.198Z,4.30
2022-08-14T08:23:40.107Z,4.10
2022-08-14T08:26:11.930Z,3.83
2022-08-14T08:28:43.667Z,3.63
2022-08-14T08:31:12.804Z,3.93
2022-08-14T08:33:42.585Z,3.93
2022-08-14T08:36:18.748Z,6.73
2022-08-14T08:39:17.266Z,3.63
2022-08-14T08:41:41.919Z,3.77
2022-08-14T08:44:17.329Z,3.93
2022-08-14T08:47:01.727Z,4.00
2022-08-14T08:49:42.971Z,3.80
2022-08-14T08:52:25.125Z,3.53
2022-08-14T08:54:58.817Z,4.00
2022-08-14T08:57:26.973Z,3.70
2022-08-14T08:59:58.731Z,3.83
2022-08-14T09:02:27.851Z,4.13
2022-08-14T09:05:02.624Z,3.37
2022-08-14T09:07:31.104Z,3.90
2022-08-14T09:10:01.114Z,3.20
2022-08-14T09:12:31.697Z,3.53
2022-08-14T09:15:01.962Z,3.77
2022-08-14T09:17:30.176Z,3.37
2022-08-14T09:20:01.977Z,3.90
2022-08-14T09:22:36.133Z,3.53
2022-08-14T09:25:12.221Z,3.20
2022-08-14T09:27:43.162Z,3.53
2022-08-14T09:30:31.264Z,3.50
2022-08-14T09:33:12.745Z,3.40
2022-08-14T09:35:48.660Z,4.20
2022-08-14T09:38:28.222Z,3.63
2022-08-14T09:41:02.584Z,3.27
2022-08-14T09:43:32.317Z,3.50
2022-08-14T09:46:00.984Z,3.47
2022-08-14T09:48:31.419Z,3.17
2022-08-14T09:54:17.920Z,3.37
2022-08-14T09:56:32.975Z,3.40
2022-08-14T09:59:15.276Z,3.10
2022-08-14T10:01:46.165Z,3.77
2022-08-14T10:04:33.024Z,3.20
2022-08-14T10:07:03.981Z,3.30
2022-08-14T10:09:35.327Z,3.20
2022-08-14T10:12:18.758Z,3.00
2022-08-14T10:14:53.368Z,3.00
2022-08-14T10:17:25.094Z,3.13
2022-08-14T10:19:58.167Z,3.20
2022-08-14T10:23:12.555Z,3.00
2022-08-14T10:25:19.775Z,3.10
2022-08-14T10:27:59.588Z,3.47
2022-08-14T10:30:35.202Z,2.70
2022-08-14T10:33:03.722Z,3.27
2022-08-14T10:35:42.306Z,3.30
2022-08-14T10:38:16.326Z,2.63
2022-08-14T10:40:52.389Z,2.87
2022-08-14T10:43:31.876Z,3.17
2022-08-14T10:46:03.599Z,3.33
2022-08-14T10:48:57.261Z,2.90
2022-08-14T10:51:26.651Z,2.80
2022-08-14T11:06:31.619Z,3.10
2022-08-14T11:09:47.064Z,2.93
2022-08-14T11:12:35.132Z,3.03
2022-08-14T11:15:04.418Z,2.70
2022-08-14T11:17:33.072Z,2.70
2022-08-14T11:20:02.664Z,2.50
2022-08-14T11:22:52.606Z,2.63
2022-08-14T11:25:23.563Z,2.27
2022-08-14T11:27:52.328Z,2.43
2022-08-14T11:30:51.549Z,2.20
2022-08-14T11:33:09.490Z,2.20
2022-08-14T11:35:47.697Z,2.47
2022-08-14T11:38:19.967Z,2.77
2022-08-14T11:40:48.484Z,2.43
2022-08-14T11:43:16.629Z,2.90
2022-08-14T11:45:48.774Z,2.80
2022-08-14T11:49:03.993Z,2.50
2022-08-14T11:51:12.870Z,2.37
2022-08-14T11:53:44.770Z,2.40
2022-08-14T11:56:13.994Z,1.98
2022-08-14T11:58:42.459Z,2.00
2022-08-14T12:01:11.027Z,1.50
2022-08-14T12:03:46.568Z,1.40
2022-08-14T12:06:28.765Z,1.50
2022-08-14T12:09:08.687Z,1.42
2022-08-14T12:11:44.170Z,1.30
2022-08-14T12:14:30.277Z,1.70
2022-08-14T12:17:04.298Z,1.23
2022-08-14T12:19:33.802Z,1.05
2022-08-14T12:22:03.393Z,1.10
2022-08-14T12:24:40.823Z,1.10
2022-08-14T12:27:08.944Z,1.23
2022-08-14T12:29:37.694Z,1.00
2022-08-14T12:32:08.872Z,1.00
2022-08-14T12:34:37.609Z,1.27
2022-08-14T12:37:06.839Z,0.90
2022-08-14T12:39:39.861Z,0.90
2022-08-14T12:42:09.265Z,1.10
2022-08-14T12:44:42.990Z,1.15
2022-08-14T12:47:13.408Z,1.40
2022-08-14T12:49:53.514Z,1.33
2022-08-14T12:52:35.934Z,1.42
2022-08-14T12:55:12.053Z,1.98
2022-08-14T12:57:42.466Z,1.52
2022-08-14T13:00:23.132Z,1.85
2022-08-14T13:02:55.090Z,1.00
2022-08-14T13:05:24.639Z,1.55
2022-08-14T13:07:57.323Z,1.35
2022-08-14T13:10:47.266Z,1.33
2022-08-14T13:13:17.899Z,1.30
2022-08-14T13:15:47.251Z,1.10
2022-08-14T13:18:15.994Z,1.15
2022-08-14T13:20:49.813Z,1.23
2022-08-14T13:23:30.589Z,1.20
2022-08-14T13:26:01.508Z,1.45
2022-08-14T13:28:34.011Z,1.35
2022-08-14T13:31:08.895Z,1.75
2022-08-14T13:33:40.474Z,1.70
2022-08-14T13:36:09.768Z,1.70
2022-08-14T13:38:38.121Z,1.90
2022-08-14T13:41:08.854Z,2.03
2022-08-14T13:43:59.722Z,1.90
2022-08-14T13:46:29.130Z,2.10
2022-08-14T13:48:59.824Z,2.00
2022-08-14T13:51:29.759Z,2.15
2022-08-14T13:54:09.968Z,2.25
2022-08-14T13:56:42.063Z,2.17
2022-08-14T13:59:10.632Z,2.22
2022-08-14T14:01:43.930Z,2.10
2022-08-14T14:04:18.829Z,2.45
2022-08-14T14:06:48.687Z,2.00
2022-08-14T14:09:16.855Z,2.05
2022-08-14T14:11:52.989Z,2.33
2022-08-14T14:14:45.104Z,2.30
2022-08-14T14:17:11.898Z,2.43
2022-08-14T14:19:41.502Z,2.33
2022-08-14T14:22:11.829Z,2.57
2022-08-14T14:24:59.869Z,2.23
2022-08-14T14:27:40.885Z,2.40
2022-08-14T14:30:46.406Z,2.33
2022-08-14T14:33:04.423Z,3.00
2022-08-14T14:35:38.629Z,2.60
2022-08-14T14:38:08.784Z,3.00
2022-08-14T14:40:53.980Z,2.70
2022-08-14T14:43:27.456Z,2.30
2022-08-14T14:45:55.581Z,2.60
2022-08-14T14:48:27.132Z,2.80
2022-08-14T14:50:57.489Z,2.83
2022-08-14T14:53:25.999Z,2.73
2022-08-14T14:56:50.541Z,2.80
2022-08-14T14:58:46.390Z,3.10
2022-08-14T15:01:15.779Z,3.03
2022-08-14T15:03:45.683Z,3.00
2022-08-14T15:06:17.502Z,3.10
2022-08-14T15:08:56.944Z,3.17
2022-08-14T15:11:30.199Z,3.03
2022-08-14T15:14:00.316Z,3.10
2022-08-14T15:16:28.518Z,3.03
2022-08-14T15:18:56.576Z,2.80
2022-08-14T15:21:25.842Z,3.40
2022-08-14T15:23:55.504Z,3.27
2022-08-14T15:26:32.022Z,3.03
2022-08-14T15:29:05.770Z,3.10
2022-08-14T15:31:36.252Z,2.93
2022-08-14T15:34:44.996Z,3.20
2022-08-14T15:37:03.156Z,2.80
2022-08-14T15:39:35.470Z,2.93
2022-08-14T15:42:15.971Z,3.67
2022-08-14T15:44:58.259Z,3.10
2022-08-14T15:47:30.269Z,3.20
2022-08-14T15:50:00.584Z,3.13
2022-08-14T15:52:32.630Z,3.23
2022-08-14T15:55:04.498Z,3.40
2022-08-14T15:57:32.574Z,3.27
2022-08-14T16:00:37.846Z,3.50
2022-08-14T16:03:15.726Z,3.50
2022-08-14T16:05:45.763Z,3.07
2022-08-14T16:08:27.004Z,3.50
2022-08-14T16:10:57.996Z,3.50
2022-08-14T16:13:41.129Z,3.53
2022-08-14T16:16:47.516Z,3.63
2022-08-14T16:19:07.305Z,3.57
2022-08-14T16:21:35.711Z,4.37
2022-08-14T16:24:06.339Z,3.43
2022-08-14T16:26:34.888Z,3.57
2022-08-14T16:29:04.966Z,3.97
2022-08-14T16:31:36.710Z,3.60
2022-08-14T16:34:45.863Z,3.97
2022-08-14T16:36:53.473Z,3.73
2022-08-14T16:39:21.491Z,3.87
2022-08-14T16:41:52.120Z,3.87
2022-08-14T16:44:31.701Z,4.03
2022-08-14T16:47:04.015Z,3.90
2022-08-14T16:50:03.087Z,3.80
2022-08-14T16:52:25.746Z,4.00
2022-08-14T16:55:11.103Z,4.03
2022-08-14T16:57:47.975Z,4.20
2022-08-14T17:00:32.985Z,3.80
2022-08-14T17:03:04.061Z,3.83
2022-08-14T17:05:33.713Z,3.93
2022-08-14T17:08:33.251Z,3.83
2022-08-14T17:11:04.744Z,4.20
2022-08-14T17:13:58.008Z,3.87
2022-08-14T17:16:28.545Z,3.90
2022-08-14T17:19:02.777Z,3.80
2022-08-14T17:21:37.408Z,3.97
2022-08-14T17:24:55.881Z,4.07
2022-08-14T17:26:55.638Z,4.13
2022-08-14T17:29:29.388Z,4.03
2022-08-14T17:32:02.344Z,3.93
2022-08-14T17:34:46.378Z,4.30
2022-08-14T17:37:27.873Z,4.10
2022-08-14T17:40:15.183Z,4.37
2022-08-14T17:42:58.869Z,3.60
2022-08-14T17:45:43.307Z,3.83
2022-08-14T17:49:14.904Z,4.20
2022-08-14T17:51:24.005Z,4.50
2022-08-14T17:54:02.855Z,4.70
2022-08-14T17:56:32.761Z,3.80
2022-08-14T17:59:02.522Z,4.13
2022-08-14T18:01:32.309Z,4.63
2022-08-14T18:04:05.520Z,4.47
2022-08-14T18:06:58.588Z,4.77
2022-08-14T18:09:38.499Z,3.63
2022-08-14T18:12:08.562Z,3.90
2022-08-14T18:14:48.911Z,4.00
2022-08-14T18:17:23.273Z,4.30
2022-08-14T18:19:52.492Z,3.87
2022-08-14T18:22:32.213Z,4.50
2022-08-14T18:25:17.458Z,5.10
2022-08-14T18:27:49.584Z,3.97
2022-08-14T18:30:32.027Z,4.03
2022-08-14T18:33:16.314Z,4.10
2022-08-14T18:35:58.721Z,4.20
2022-08-14T18:38:45.586Z,4.00
2022-08-14T18:41:36.639Z,4.43
2022-08-14T18:44:10.857Z,4.07
2022-08-14T18:47:17.925Z,4.00
2022-08-14T18:50:26.039Z,4.50
2022-08-14T18:52:54.813Z,4.53
2022-08-14T18:56:01.848Z,4.00
2022-08-14T18:58:48.037Z,4.37
2022-08-14T19:01:24.077Z,4.40
2022-08-14T19:03:52.440Z,4.37
2022-08-14T19:06:20.522Z,4.60
2022-08-14T19:08:49.332Z,4.67
2022-08-14T19:11:50.291Z,4.70
2022-08-14T19:14:35.577Z,4.87
2022-08-14T19:17:03.301Z,5.07
2022-08-14T19:19:39.040Z,5.30
2022-08-14T19:22:12.752Z,4.80
2022-08-14T19:24:50.591Z,5.13
2022-08-14T19:27:23.765Z,5.03
2022-08-14T19:29:53.146Z,4.93
2022-08-14T19:32:40.709Z,5.07
2022-08-14T19:35:48.880Z,4.47
2022-08-14T19:38:51.777Z,5.10
2022-08-14T19:41:21.442Z,4.77
2022-08-14T19:43:57.042Z,5.30
2022-08-14T19:46:38.625Z,4.97
2022-08-14T19:49:23.279Z,5.10
2022-08-14T19:52:04.197Z,5.40
2022-08-14T19:54:45.730Z,5.40
2022-08-14T19:57:17.425Z,6.13
2022-08-14T19:59:57.293Z,5.97
2022-08-14T20:02:30.085Z,6.17
2022-08-14T20:04:59.254Z,5.97
2022-08-14T20:07:59.527Z,5.57
2022-08-14T20:11:08.126Z,6.00
2022-08-14T20:13:23.513Z,5.90
2022-08-14T20:15:53.451Z,6.50
2022-08-14T20:18:48.751Z,5.67
2022-08-14T20:21:14.955Z,6.37
2022-08-14T20:23:42.922Z,5.60
2022-08-14T20:26:31.622Z,5.60
2022-08-14T20:29:04.563Z,5.53
2022-08-14T20:31:36.461Z,7.17
2022-08-14T20:34:07.206Z,5.53
2022-08-14T20:36:40.018Z,6.30
2022-08-14T20:39:15.474Z,6.30
2022-08-14T20:41:44.824Z,6.03
2022-08-14T20:44:39.057Z,7.40
2022-08-14T20:47:08.408Z,6.30
2022-08-14T20:49:37.432Z,6.20
2022-08-14T20:52:18.957Z,7.03
2022-08-14T20:54:50.640Z,6.33
2022-08-14T20:57:19.383Z,7.30
2022-08-14T20:59:53.307Z,6.80
2022-08-14T21:02:46.260Z,6.73
2022-08-14T21:05:20.534Z,6.07
2022-08-14T21:07:50.275Z,6.80
2022-08-14T21:10:33.094Z,6.70
2022-08-14T21:13:25.713Z,7.17
2022-08-14T21:15:57.651Z,6.90
2022-08-14T21:18:28.723Z,6.00
2022-08-14T21:20:57.831Z,7.23
2022-08-14T21:23:32.548Z,6.60
2022-08-14T21:26:03.690Z,7.93
2022-08-14T21:28:35.357Z,6.23
2022-08-14T21:31:06.690Z,6.87
2022-08-14T21:33:37.565Z,6.63
2022-08-14T21:36:07.824Z,6.67
2022-08-14T21:38:38.080Z,7.00
2022-08-14T21:41:43.312Z,7.10
2022-08-14T21:44:18.360Z,7.30
2022-08-14T21:46:49.781Z,6.77
2022-08-14T21:49:21.051Z,6.67
2022-08-14T21:51:57.111Z,7.30
2022-08-14T21:54:31.852Z,7.10
2022-08-14T21:57:02.233Z,6.73
2022-08-14T21:59:31.965Z,6.37
2022-08-14T22:02:03.727Z,7.07
2022-08-14T22:04:40.050Z,6.47
2022-08-14T22:07:09.993Z,6.80
2022-08-14T22:09:38.328Z,6.77
2022-08-14T22:12:57.357Z,6.40
2022-08-14T22:15:01.867Z,6.93
2022-08-14T22:17:32.368Z,6.53
2022-08-14T22:20:16.186Z,7.00
2022-08-14T22:22:44.888Z,6.80
2022-08-14T22:25:17.366Z,6.97
2022-08-14T22:27:55.844Z,6.30
2022-08-14T22:30:24.789Z,6.30
2022-08-14T22:32:57.452Z,6.13
2022-08-14T22:35:27.905Z,6.73
2022-08-14T22:38:35.960Z,6.07
2022-08-14T22:41:02.556Z,5.60
2022-08-14T22:43:35.077Z,6.43
2022-08-14T22:46:03.523Z,6.20
2022-08-14T22:48:43.190Z,6.43
2022-08-14T22:51:17.905Z,6.43
2022-08-14T22:53:46.365Z,6.00
2022-08-14T22:56:20.606Z,6.50
2022-08-14T22:58:53.997Z,6.10
2022-08-14T23:01:23.914Z,6.20
2022-08-14T23:03:52.651Z,6.90
2022-08-14T23:07:02.228Z,6.67
2022-08-14T23:09:36.445Z,6.20
2022-08-14T23:12:02.746Z,6.40
2022-08-14T23:14:30.922Z,6.30
2022-08-14T23:16:59.104Z,6.53
2022-08-14T23:19:33.948Z,5.90
2022-08-14T23:22:05.076Z,6.87
2022-08-14T23:24:33.495Z,6.30
2022-08-14T23:27:01.741Z,6.90
2022-08-14T23:29:37.885Z,5.87
2022-08-14T23:32:18.944Z,6.00
2022-08-14T23:34:51.755Z,5.50
2022-08-14T23:37:26.757Z,6.20
2022-08-14T23:39:55.309Z,6.00
2022-08-14T23:42:39.833Z,5.80
2022-08-14T23:45:09.535Z,6.53
2022-08-14T23:47:51.055Z,6.60
2022-08-14T23:50:38.095Z,6.27
2022-08-14T23:53:28.408Z,5.97
2022-08-14T23:56:12.037Z,6.10
2022-08-14T23:58:40.349Z,6.57
